createdAt,value
2017-02-05T00:00:36.486Z,990.88
2017-02-05T00:01:50.051Z,990.89
2017-02-05T00:03:03.480Z,990.91
2017-02-05T00:04:17.115Z,990.88
2017-02-05T00:05:30.588Z,990.91
2017-02-05T00:06:44.493Z,990.91
2017-02-05T00:07:57.991Z,990.88
2017-02-05T00:09:11.544Z,990.87
2017-02-05T00:10:27.296Z,990.87
2017-02-05T00:11:41.225Z,990.86
2017-02-05T00:12:55.488Z,990.88
2017-02-05T00:14:08.894Z,990.89
2017-02-05T00:15:22.491Z,990.84
2017-02-05T00:16:36.413Z,990.85
2017-02-05T00:17:50.029Z,990.79
2017-02-05T00:19:03.773Z,990.79
2017-02-05T00:20:17.331Z,990.76
2017-02-05T00:21:31.229Z,990.83
2017-02-05T00:22:44.766Z,990.84
2017-02-05T00:23:58.181Z,990.85
2017-02-05T00:25:12.697Z,990.8
2017-02-05T00:26:26.124Z,990.79
2017-02-05T00:27:39.737Z,990.83
2017-02-05T00:28:53.605Z,990.77
2017-02-05T00:30:07.174Z,990.85
2017-02-05T00:31:20.902Z,990.85
2017-02-05T00:32:34.498Z,990.95
2017-02-05T00:33:48.954Z,990.94
2017-02-05T00:35:02.484Z,990.92
2017-02-05T00:36:16.314Z,990.9
2017-02-05T00:37:30.217Z,990.94
2017-02-05T00:38:43.642Z,990.94
2017-02-05T00:39:57.590Z,990.91
2017-02-05T00:41:11.431Z,990.96
2017-02-05T00:42:24.969Z,990.94
2017-02-05T00:43:38.723Z,991.01
2017-02-05T00:44:52.245Z,990.97
2017-02-05T00:46:06.078Z,991
2017-02-05T00:47:19.604Z,991.01
2017-02-05T00:48:33.166Z,990.99
2017-02-05T00:49:47.007Z,991.08
2017-02-05T00:51:00.441Z,991.02
2017-02-05T00:52:13.971Z,991.07
2017-02-05T00:53:27.857Z,991.13
2017-02-05T00:54:41.441Z,991.17
2017-02-05T00:55:55.211Z,991.19
2017-02-05T00:57:08.959Z,991.27
2017-02-05T00:58:22.370Z,991.27
2017-02-05T00:59:36.003Z,991.34
2017-02-05T01:00:49.475Z,991.35
2017-02-05T01:02:03.693Z,991.33
2017-02-05T01:03:17.143Z,991.38
2017-02-05T01:04:30.916Z,991.46
2017-02-05T01:05:44.834Z,991.46
2017-02-05T01:06:58.377Z,991.48
2017-02-05T01:08:12.087Z,991.45
2017-02-05T01:09:25.689Z,991.54
2017-02-05T01:10:39.250Z,991.56
2017-02-05T01:11:52.962Z,991.6
2017-02-05T01:13:06.789Z,991.59
2017-02-05T01:14:20.751Z,991.56
2017-02-05T01:15:34.247Z,991.67
2017-02-05T01:16:48.242Z,991.67
2017-02-05T01:18:01.665Z,991.73
2017-02-05T01:19:15.213Z,991.79
2017-02-05T01:20:29.438Z,991.78
2017-02-05T01:21:42.976Z,991.76
2017-02-05T01:22:56.829Z,991.78
2017-02-05T01:24:10.360Z,991.81
2017-02-05T01:25:23.847Z,991.81
2017-02-05T01:26:40.345Z,991.87
2017-02-05T01:27:53.815Z,991.92
2017-02-05T01:29:07.420Z,991.91
2017-02-05T01:30:20.865Z,991.98
2017-02-05T01:31:34.476Z,992
2017-02-05T01:32:48.247Z,992.01
2017-02-05T01:34:01.979Z,992.06
2017-02-05T01:35:15.484Z,992.07
2017-02-05T01:36:29.103Z,992.06
2017-02-05T01:37:42.896Z,992.1
2017-02-05T01:38:56.694Z,992.13
2017-02-05T01:40:10.094Z,992.1
2017-02-05T01:41:24.072Z,992.13
2017-02-05T01:42:37.500Z,992.14
2017-02-05T01:43:51.492Z,992.14
2017-02-05T01:45:06.454Z,992.16
2017-02-05T01:46:20.095Z,992.16
2017-02-05T01:47:33.556Z,992.2
2017-02-05T01:48:47.077Z,992.16
2017-02-05T01:50:00.483Z,992.19
2017-02-05T01:51:14.293Z,992.22
2017-02-05T01:52:27.745Z,992.29
2017-02-05T01:53:41.748Z,992.26
2017-02-05T01:54:55.196Z,992.27
2017-02-05T01:56:08.694Z,992.28
2017-02-05T01:57:22.913Z,992.33
2017-02-05T01:58:37.341Z,992.31
2017-02-05T01:59:51.174Z,992.36
2017-02-05T02:01:04.727Z,992.35
2017-02-05T02:02:18.578Z,992.36
2017-02-05T02:03:32.820Z,992.36
2017-02-05T02:04:46.250Z,992.37
2017-02-05T02:06:00.179Z,992.42
2017-02-05T02:07:13.761Z,992.41
2017-02-05T02:08:27.339Z,992.44
2017-02-05T02:09:41.098Z,992.41
2017-02-05T02:10:55.053Z,992.4
2017-02-05T02:12:08.887Z,992.44
2017-02-05T02:13:22.464Z,992.37
2017-02-05T02:14:35.893Z,992.39
2017-02-05T02:15:50.128Z,992.36
2017-02-05T02:17:03.562Z,992.44
2017-02-05T02:18:17.108Z,992.41
2017-02-05T02:19:30.969Z,992.45
2017-02-05T02:20:44.515Z,992.45
2017-02-05T02:21:59.034Z,992.46
2017-02-05T02:23:12.637Z,992.44
2017-02-05T02:24:26.135Z,992.43
2017-02-05T02:25:39.678Z,992.4
2017-02-05T02:26:53.190Z,992.42
2017-02-05T02:28:07.435Z,992.44
2017-02-05T02:29:20.974Z,992.49
2017-02-05T02:30:34.911Z,992.44
2017-02-05T02:31:48.348Z,992.45
2017-02-05T02:33:01.895Z,992.46
2017-02-05T02:34:15.918Z,992.48
2017-02-05T02:35:29.529Z,992.48
2017-02-05T02:36:42.977Z,992.5
2017-02-05T02:37:56.472Z,992.53
2017-02-05T02:39:09.912Z,992.52
2017-02-05T02:40:24.083Z,992.54
2017-02-05T02:41:37.550Z,992.56
2017-02-05T02:42:53.654Z,992.55
2017-02-05T02:44:07.069Z,992.52
2017-02-05T02:45:21.059Z,992.52
2017-02-05T02:46:34.783Z,992.51
2017-02-05T02:47:48.325Z,992.5
2017-02-05T02:49:01.909Z,992.56
2017-02-05T02:50:15.645Z,992.52
2017-02-05T02:51:29.161Z,992.54
2017-02-05T02:52:43.011Z,992.62
2017-02-05T02:53:56.454Z,992.58
2017-02-05T02:55:10.501Z,992.6
2017-02-05T02:56:23.968Z,992.56
2017-02-05T02:57:38.342Z,992.61
2017-02-05T02:58:52.063Z,992.59
2017-02-05T03:00:06.034Z,992.65
2017-02-05T03:01:20.064Z,992.58
2017-02-05T03:02:34.012Z,992.59
2017-02-05T03:03:47.456Z,992.59
2017-02-05T03:05:01.745Z,992.58
2017-02-05T03:06:15.156Z,992.57
2017-02-05T03:07:28.844Z,992.56
2017-02-05T03:08:42.258Z,992.56
2017-02-05T03:09:56.624Z,992.52
2017-02-05T03:11:10.307Z,992.54
2017-02-05T03:12:24.336Z,992.51
2017-02-05T03:13:37.763Z,992.49
2017-02-05T03:14:51.721Z,992.53
2017-02-05T03:16:05.319Z,992.5
2017-02-05T03:17:19.218Z,992.49
2017-02-05T03:18:32.626Z,992.48
2017-02-05T03:19:46.137Z,992.47
2017-02-05T03:20:59.555Z,992.47
2017-02-05T03:22:13.186Z,992.53
2017-02-05T03:23:26.947Z,992.56
2017-02-05T03:24:41.080Z,992.6
2017-02-05T03:25:54.538Z,992.61
2017-02-05T03:27:08.066Z,992.61
2017-02-05T03:28:21.588Z,992.63
2017-02-05T03:29:35.421Z,992.63
2017-02-05T03:30:48.860Z,992.68
2017-02-05T03:32:02.567Z,992.68
2017-02-05T03:33:16.512Z,992.68
2017-02-05T03:34:30.077Z,992.69
2017-02-05T03:35:44.172Z,992.7
2017-02-05T03:36:57.712Z,992.72
2017-02-05T03:38:11.131Z,992.67
2017-02-05T03:39:24.720Z,992.73
2017-02-05T03:40:38.600Z,992.71
2017-02-05T03:41:52.401Z,992.74
2017-02-05T03:43:06.275Z,992.7
2017-02-05T03:44:19.914Z,992.72
2017-02-05T03:45:33.449Z,992.78
2017-02-05T03:46:47.041Z,992.81
2017-02-05T03:48:00.800Z,992.8
2017-02-05T03:49:14.841Z,992.81
2017-02-05T03:50:28.255Z,992.81
2017-02-05T03:51:41.788Z,992.79
2017-02-05T03:52:56.066Z,992.84
2017-02-05T03:54:09.952Z,992.84
2017-02-05T03:55:23.401Z,992.82
2017-02-05T03:56:37.680Z,992.8
2017-02-05T03:57:51.920Z,992.84
2017-02-05T03:59:08.117Z,992.79
2017-02-05T04:00:23.339Z,992.84
2017-02-05T04:01:36.973Z,992.83
2017-02-05T04:02:50.436Z,992.81
2017-02-05T04:04:04.353Z,992.83
2017-02-05T04:05:17.838Z,992.78
2017-02-05T04:06:31.662Z,992.83
2017-02-05T04:07:45.091Z,992.81
2017-02-05T04:08:59.587Z,992.8
2017-02-05T04:10:13.057Z,992.82
2017-02-05T04:11:26.578Z,992.83
2017-02-05T04:12:40.282Z,992.79
2017-02-05T04:13:53.842Z,992.82
2017-02-05T04:15:07.399Z,992.8
2017-02-05T04:16:21.223Z,992.74
2017-02-05T04:17:34.661Z,992.75
2017-02-05T04:18:48.760Z,992.73
2017-02-05T04:20:02.170Z,992.74
2017-02-05T04:21:15.773Z,992.77
2017-02-05T04:22:29.204Z,992.72
2017-02-05T04:23:43.885Z,992.71
2017-02-05T04:24:57.605Z,992.72
2017-02-05T04:26:11.225Z,992.71
2017-02-05T04:27:25.044Z,992.66
2017-02-05T04:28:38.682Z,992.64
2017-02-05T04:29:52.088Z,992.66
2017-02-05T04:31:05.908Z,992.66
2017-02-05T04:32:19.801Z,992.67
2017-02-05T04:33:34.168Z,992.65
2017-02-05T04:34:47.632Z,992.67
2017-02-05T04:36:01.276Z,992.65
2017-02-05T04:37:15.053Z,992.63
2017-02-05T04:38:29.472Z,992.62
2017-02-05T04:39:42.904Z,992.6
2017-02-05T04:40:56.827Z,992.6
2017-02-05T04:42:10.690Z,992.56
2017-02-05T04:43:24.976Z,992.64
2017-02-05T04:44:38.359Z,992.63
2017-02-05T04:45:51.873Z,992.65
2017-02-05T04:47:05.283Z,992.65
2017-02-05T04:48:18.862Z,992.59
2017-02-05T04:49:32.979Z,992.55
2017-02-05T04:50:47.574Z,992.53
2017-02-05T04:52:10.419Z,992.46
2017-02-05T04:53:30.799Z,992.44
2017-02-05T04:54:44.889Z,992.41
2017-02-05T04:55:58.769Z,992.43
2017-02-05T04:57:12.392Z,992.41
2017-02-05T04:58:26.871Z,992.39
2017-02-05T04:59:40.692Z,992.34
2017-02-05T05:00:54.258Z,992.34
2017-02-05T05:02:12.607Z,992.27
2017-02-05T05:03:26.157Z,992.24
2017-02-05T05:04:39.783Z,992.23
2017-02-05T05:05:54.552Z,992.27
2017-02-05T05:07:16.120Z,992.27
2017-02-05T05:08:31.359Z,992.27
2017-02-05T05:09:45.410Z,992.28
2017-02-05T05:10:58.970Z,992.27
2017-02-05T05:12:12.456Z,992.21
2017-02-05T05:13:26.452Z,992.25
2017-02-05T05:14:40.332Z,992.22
2017-02-05T05:15:56.030Z,992.27
2017-02-05T05:17:09.433Z,992.3
2017-02-05T05:18:23.074Z,992.33
2017-02-05T05:19:37.340Z,992.37
2017-02-05T05:20:51.252Z,992.34
2017-02-05T05:22:04.695Z,992.37
2017-02-05T05:23:18.331Z,992.38
2017-02-05T05:24:31.748Z,992.37
2017-02-05T05:25:45.471Z,992.42
2017-02-05T05:26:59.256Z,992.41
2017-02-05T05:28:12.982Z,992.42
2017-02-05T05:29:26.458Z,992.44
2017-02-05T05:30:42.564Z,992.48
2017-02-05T05:31:57.170Z,992.41
2017-02-05T05:33:11.502Z,992.42
2017-02-05T05:34:25.465Z,992.43
2017-02-05T05:35:38.989Z,992.44
2017-02-05T05:37:07.460Z,992.45
2017-02-05T05:38:22.044Z,992.41
2017-02-05T05:39:41.019Z,992.44
2017-02-05T05:40:57.157Z,992.45
2017-02-05T05:42:11.985Z,992.44
2017-02-05T05:43:45.591Z,992.41
2017-02-05T05:44:59.548Z,992.4
2017-02-05T05:46:13.372Z,992.4
2017-02-05T05:47:27.707Z,992.39
2017-02-05T05:48:41.352Z,992.38
2017-02-05T05:49:55.046Z,992.42
2017-02-05T05:54:04.763Z,992.46
2017-02-05T05:55:19.073Z,992.39
2017-02-05T05:56:34.069Z,992.4
2017-02-05T05:57:50.262Z,992.41
2017-02-05T06:00:34.960Z,992.41
2017-02-05T06:01:49.204Z,992.43
2017-02-05T06:03:02.822Z,992.4
2017-02-05T06:04:16.228Z,992.43
2017-02-05T06:05:30.046Z,992.39
2017-02-05T06:06:43.481Z,992.37
2017-02-05T06:07:57.052Z,992.36
2017-02-05T06:09:10.476Z,992.34
2017-02-05T06:10:24.048Z,992.33
2017-02-05T06:11:38.337Z,992.32
2017-02-05T06:12:51.944Z,992.3
2017-02-05T06:14:05.359Z,992.33
2017-02-05T06:15:20.133Z,992.29
2017-02-05T06:16:33.506Z,992.29
2017-02-05T06:17:47.040Z,992.32
2017-02-05T06:19:00.405Z,992.28
2017-02-05T06:20:14.040Z,992.28
2017-02-05T06:21:28.032Z,992.29
2017-02-05T06:22:41.944Z,992.38
2017-02-05T06:23:55.391Z,992.39
2017-02-05T06:25:09.799Z,992.42
2017-02-05T06:26:23.283Z,992.41
2017-02-05T06:27:37.221Z,992.42
2017-02-05T06:28:51.113Z,992.43
2017-02-05T06:30:05.189Z,992.39
2017-02-05T06:31:18.639Z,992.41
2017-02-05T06:32:33.247Z,992.38
2017-02-05T06:33:47.092Z,992.36
2017-02-05T06:35:02.769Z,992.4
2017-02-05T06:36:16.756Z,992.39
2017-02-05T06:37:30.808Z,992.38
2017-02-05T06:38:44.295Z,992.41
2017-02-05T06:39:57.857Z,992.41
2017-02-05T06:41:11.299Z,992.47
2017-02-05T06:42:24.863Z,992.46
2017-02-05T06:43:38.350Z,992.48
2017-02-05T06:44:52.252Z,992.45
2017-02-05T06:46:05.845Z,992.47
2017-02-05T06:47:19.879Z,992.54
2017-02-05T06:48:33.357Z,992.58
2017-02-05T06:49:46.901Z,992.6
2017-02-05T06:51:00.348Z,992.57
2017-02-05T06:52:15.139Z,992.61
2017-02-05T06:53:29.406Z,992.55
2017-02-05T06:54:42.957Z,992.54
2017-02-05T06:55:57.215Z,992.58
2017-02-05T06:57:11.263Z,992.56
2017-02-05T06:58:24.800Z,992.56
2017-02-05T06:59:38.388Z,992.52
2017-02-05T07:00:52.056Z,992.48
2017-02-05T07:02:06.039Z,992.51
2017-02-05T07:03:19.480Z,992.59
2017-02-05T07:04:33.160Z,992.63
2017-02-05T07:05:46.602Z,992.69
2017-02-05T07:07:00.175Z,992.67
2017-02-05T07:08:13.661Z,992.68
2017-02-05T07:09:27.433Z,992.64
2017-02-05T07:10:40.905Z,992.66
2017-02-05T07:11:54.589Z,992.66
2017-02-05T07:13:08.005Z,992.64
2017-02-05T07:14:22.012Z,992.61
2017-02-05T07:15:35.827Z,992.64
2017-02-05T07:16:49.780Z,992.58
2017-02-05T07:18:03.201Z,992.58
2017-02-05T07:19:16.977Z,992.6
2017-02-05T07:20:30.433Z,992.6
2017-02-05T07:21:44.007Z,992.63
2017-02-05T07:22:57.846Z,992.65
2017-02-05T07:24:11.461Z,992.6
2017-02-05T07:25:24.869Z,992.62
2017-02-05T07:26:38.637Z,992.61
2017-02-05T07:27:52.477Z,992.6
2017-02-05T07:29:06.031Z,992.63
2017-02-05T07:30:20.140Z,992.58
2017-02-05T07:31:33.700Z,992.51
2017-02-05T07:32:47.298Z,992.53
2017-02-05T07:34:00.878Z,992.61
2017-02-05T07:35:14.363Z,992.66
2017-02-05T07:36:27.926Z,992.68
2017-02-05T07:37:41.385Z,992.7
2017-02-05T07:38:55.012Z,992.68
2017-02-05T07:40:08.494Z,992.66
2017-02-05T07:41:22.967Z,992.66
2017-02-05T07:42:36.798Z,992.59
2017-02-05T07:43:50.526Z,992.61
2017-02-05T07:45:04.823Z,992.57
2017-02-05T07:46:18.460Z,992.55
2017-02-05T07:47:31.955Z,992.53
2017-02-05T07:48:46.354Z,992.51
2017-02-05T07:50:00.253Z,992.46
2017-02-05T07:51:16.407Z,992.51
2017-02-05T07:52:29.851Z,992.5
2017-02-05T07:53:43.521Z,992.46
2017-02-05T07:54:57.418Z,992.44
2017-02-05T07:56:11.470Z,992.45
2017-02-05T07:57:24.920Z,992.48
2017-02-05T07:58:38.878Z,992.46
2017-02-05T07:59:53.305Z,992.5
2017-02-05T08:01:07.336Z,992.49
2017-02-05T08:02:20.800Z,992.46
2017-02-05T08:03:34.826Z,992.45
2017-02-05T08:04:48.297Z,992.42
2017-02-05T08:06:02.013Z,992.38
2017-02-05T08:07:15.687Z,992.42
2017-02-05T08:08:29.766Z,992.41
2017-02-05T08:09:43.323Z,992.42
2017-02-05T08:10:58.299Z,992.44
2017-02-05T08:12:11.775Z,992.42
2017-02-05T08:13:25.521Z,992.35
2017-02-05T08:14:39.362Z,992.4
2017-02-05T08:15:53.327Z,992.41
2017-02-05T08:17:07.229Z,992.37
2017-02-05T08:18:20.771Z,992.43
2017-02-05T08:19:34.652Z,992.43
2017-02-05T08:20:48.283Z,992.46
2017-02-05T08:22:02.638Z,992.49
2017-02-05T08:23:16.698Z,992.45
2017-02-05T08:24:30.284Z,992.47
2017-02-05T08:25:45.887Z,992.47
2017-02-05T08:27:00.444Z,992.45
2017-02-05T08:28:17.534Z,992.41
2017-02-05T08:29:34.390Z,992.41
2017-02-05T08:30:48.045Z,992.43
2017-02-05T08:32:02.118Z,992.34
2017-02-05T08:33:15.788Z,992.34
2017-02-05T08:34:29.432Z,992.3
2017-02-05T08:35:43.276Z,992.23
2017-02-05T08:36:56.922Z,992.3
2017-02-05T08:38:11.286Z,992.28
2017-02-05T08:39:25.778Z,992.3
2017-02-05T08:40:39.728Z,992.32
2017-02-05T08:42:07.394Z,992.3
2017-02-05T08:43:21.091Z,992.32
2017-02-05T08:44:34.619Z,992.35
2017-02-05T08:45:48.333Z,992.39
2017-02-05T08:47:02.296Z,992.36
2017-02-05T08:48:16.331Z,992.36
2017-02-05T08:49:31.277Z,992.34
2017-02-05T08:50:44.971Z,992.27
2017-02-05T08:51:58.865Z,992.27
2017-02-05T08:53:13.352Z,992.29
2017-02-05T08:54:26.892Z,992.22
2017-02-05T08:55:41.648Z,992.27
2017-02-05T08:56:55.506Z,992.29
2017-02-05T08:58:09.051Z,992.26
2017-02-05T08:59:22.535Z,992.27
2017-02-05T09:00:49.164Z,992.28
2017-02-05T09:02:03.184Z,992.34
2017-02-05T09:03:16.903Z,992.32
2017-02-05T09:04:30.558Z,992.33
2017-02-05T09:05:44.589Z,992.32
2017-02-05T09:06:58.564Z,992.31
2017-02-05T09:08:15.524Z,992.31
2017-02-05T09:09:29.488Z,992.34
2017-02-05T09:10:43.918Z,992.31
2017-02-05T09:11:57.456Z,992.26
2017-02-05T09:13:30.577Z,992.23
2017-02-05T09:14:44.208Z,992.18
2017-02-05T09:15:57.643Z,992.12
2017-02-05T09:17:11.560Z,992.15
2017-02-05T09:18:25.012Z,992.17
2017-02-05T09:19:39.067Z,992.16
2017-02-05T09:20:53.275Z,992.14
2017-02-05T09:22:07.347Z,992.12
2017-02-05T09:23:21.461Z,992.12
2017-02-05T09:24:52.651Z,992.06
2017-02-05T09:26:06.666Z,992.07
2017-02-05T09:27:20.111Z,992.05
2017-02-05T09:28:33.728Z,992.08
2017-02-05T09:29:47.135Z,992.08
2017-02-05T09:31:00.694Z,992.13
2017-02-05T09:32:14.416Z,992.16
2017-02-05T09:33:27.974Z,992.12
2017-02-05T09:34:41.655Z,992.12
2017-02-05T09:35:55.274Z,992.18
2017-02-05T09:37:09.224Z,992.15
2017-02-05T09:38:23.583Z,992.14
2017-02-05T09:39:38.871Z,992.12
2017-02-05T09:40:52.555Z,992.14
2017-02-05T09:42:06.473Z,992.15
2017-02-05T09:43:20.080Z,992.16
2017-02-05T09:44:34.284Z,992.16
2017-02-05T09:45:47.923Z,992.26
2017-02-05T09:47:01.876Z,992.2
2017-02-05T09:48:15.916Z,992.22
2017-02-05T09:49:29.539Z,992.25
2017-02-05T09:50:44.567Z,992.22
2017-02-05T09:51:58.956Z,992.23
2017-02-05T09:53:12.737Z,992.25
2017-02-05T09:54:27.186Z,992.25
2017-02-05T09:55:41.365Z,992.27
2017-02-05T09:56:55.167Z,992.3
2017-02-05T09:58:08.803Z,992.25
2017-02-05T09:59:22.964Z,992.22
2017-02-05T10:00:46.764Z,992.17
2017-02-05T10:02:22.504Z,992.21
2017-02-05T10:03:36.403Z,992.22
2017-02-05T10:04:50.931Z,992.22
2017-02-05T10:06:04.608Z,992.26
2017-02-05T10:07:19.206Z,992.16
2017-02-05T10:08:33.731Z,992.19
2017-02-05T10:09:48.668Z,992.16
2017-02-05T10:11:02.329Z,992.09
2017-02-05T10:12:16.218Z,992.06
2017-02-05T10:13:30.367Z,991.98
2017-02-05T10:14:44.235Z,991.93
2017-02-05T10:15:59.499Z,991.91
2017-02-05T10:17:13.771Z,991.89
2017-02-05T10:18:28.085Z,991.89
2017-02-05T10:19:41.956Z,991.87
2017-02-05T10:20:55.665Z,991.86
2017-02-05T10:22:10.289Z,991.84
2017-02-05T10:23:24.339Z,991.86
2017-02-05T10:24:38.128Z,991.86
2017-02-05T10:25:54.823Z,991.89
2017-02-05T10:27:08.727Z,991.91
2017-02-05T10:28:23.088Z,991.87
2017-02-05T10:29:36.522Z,991.86
2017-02-05T10:30:50.160Z,991.86
2017-02-05T10:32:03.626Z,991.84
2017-02-05T10:33:17.973Z,991.85
2017-02-05T10:34:31.742Z,991.86
2017-02-05T10:35:46.260Z,991.82
2017-02-05T10:36:59.776Z,991.81
2017-02-05T10:38:13.775Z,991.78
2017-02-05T10:39:27.283Z,991.8
2017-02-05T10:40:41.127Z,991.71
2017-02-05T10:41:54.722Z,991.74
2017-02-05T10:43:09.522Z,991.69
2017-02-05T10:44:23.194Z,991.68
2017-02-05T10:45:37.067Z,991.74
2017-02-05T10:46:52.820Z,991.73
2017-02-05T10:48:07.432Z,991.71
2017-02-05T10:49:21.268Z,991.75
2017-02-05T10:50:34.869Z,991.73
2017-02-05T10:51:48.473Z,991.75
2017-02-05T10:53:02.807Z,991.75
2017-02-05T10:54:16.544Z,991.74
2017-02-05T10:55:39.972Z,991.65
2017-02-05T10:56:54.131Z,991.67
2017-02-05T10:58:08.046Z,991.66
2017-02-05T10:59:22.480Z,991.6
2017-02-05T11:00:36.880Z,991.52
2017-02-05T11:01:50.476Z,991.55
2017-02-05T11:03:04.003Z,991.48
2017-02-05T11:04:17.807Z,991.48
2017-02-05T11:05:31.923Z,991.48
2017-02-05T11:06:46.637Z,991.45
2017-02-05T11:08:00.521Z,991.47
2017-02-05T11:09:14.533Z,991.48
2017-02-05T11:10:28.310Z,991.5
2017-02-05T11:11:42.217Z,991.51
2017-02-05T11:12:56.323Z,991.47
2017-02-05T11:14:10.476Z,991.52
2017-02-05T11:15:25.355Z,991.48
2017-02-05T11:16:39.220Z,991.47
2017-02-05T11:17:53.300Z,991.53
2017-02-05T11:19:07.440Z,991.55
2017-02-05T11:20:21.190Z,991.58
2017-02-05T11:21:36.116Z,991.55
2017-02-05T11:22:49.668Z,991.52
2017-02-05T11:24:03.804Z,991.52
2017-02-05T11:25:17.876Z,991.5
2017-02-05T11:26:32.190Z,991.53
2017-02-05T11:27:45.676Z,991.57
2017-02-05T11:28:59.317Z,991.56
2017-02-05T11:30:12.808Z,991.56
2017-02-05T11:31:26.638Z,991.51
2017-02-05T11:32:41.242Z,991.48
2017-02-05T11:33:54.974Z,991.47
2017-02-05T11:35:08.418Z,991.42
2017-02-05T11:36:21.975Z,991.4
2017-02-05T11:37:35.901Z,991.37
2017-02-05T11:38:50.053Z,991.38
2017-02-05T11:40:03.586Z,991.32
2017-02-05T11:41:17.244Z,991.26
2017-02-05T11:42:33.094Z,991.22
2017-02-05T11:43:47.834Z,991.24
2017-02-05T11:45:01.770Z,991.22
2017-02-05T11:46:15.268Z,991.22
2017-02-05T11:47:28.869Z,991.18
2017-02-05T11:48:43.197Z,991.16
2017-02-05T11:49:56.825Z,991.13
2017-02-05T11:51:10.945Z,991.1
2017-02-05T11:52:25.653Z,991.08
2017-02-05T11:53:39.188Z,991.09
2017-02-05T11:54:52.840Z,991.05
2017-02-05T11:56:07.006Z,990.96
2017-02-05T11:57:20.922Z,990.93
2017-02-05T11:58:34.927Z,990.88
2017-02-05T11:59:49.664Z,990.85
2017-02-05T12:01:03.132Z,990.87
2017-02-05T12:02:16.714Z,990.8
2017-02-05T12:03:30.945Z,990.84
2017-02-05T12:04:44.596Z,990.81
2017-02-05T12:05:58.449Z,990.79
2017-02-05T12:07:12.003Z,990.82
2017-02-05T12:08:25.884Z,990.81
2017-02-05T12:09:40.236Z,990.8
2017-02-05T12:10:53.947Z,990.83
2017-02-05T12:12:07.545Z,990.88
2017-02-05T12:13:20.998Z,990.9
2017-02-05T12:14:34.868Z,990.96
2017-02-05T12:15:49.643Z,990.98
2017-02-05T12:17:03.725Z,990.94
2017-02-05T12:18:17.600Z,991
2017-02-05T12:19:31.807Z,991.03
2017-02-05T12:20:46.140Z,991.03
2017-02-05T12:22:27.673Z,991.04
2017-02-05T12:23:42.213Z,991.05
2017-02-05T12:24:55.815Z,991.02
2017-02-05T12:26:10.084Z,991.02
2017-02-05T12:27:24.284Z,991.06
2017-02-05T12:28:39.828Z,991.04
2017-02-05T12:29:53.298Z,990.99
2017-02-05T12:31:06.863Z,991.02
2017-02-05T12:32:21.163Z,991.06
2017-02-05T12:33:34.754Z,991.07
2017-02-05T12:34:48.224Z,991.08
2017-02-05T12:36:02.408Z,991.16
2017-02-05T12:37:15.983Z,991.16
2017-02-05T12:38:30.517Z,991.16
2017-02-05T12:39:44.913Z,991.15
2017-02-05T12:40:59.379Z,991.13
2017-02-05T12:42:13.024Z,991.1
2017-02-05T12:43:26.783Z,991.08
2017-02-05T12:44:40.254Z,991.03
2017-02-05T12:45:54.350Z,991.03
2017-02-05T12:47:09.750Z,991
2017-02-05T12:48:23.580Z,990.99
2017-02-05T12:49:37.954Z,990.96
2017-02-05T12:50:52.858Z,991
2017-02-05T12:52:06.984Z,990.99
2017-02-05T12:53:20.588Z,990.96
2017-02-05T12:54:34.234Z,990.98
2017-02-05T12:55:48.081Z,991.02
2017-02-05T12:57:01.657Z,990.97
2017-02-05T12:58:15.722Z,990.97
2017-02-05T12:59:34.233Z,990.92
2017-02-05T13:00:48.281Z,990.94
2017-02-05T13:02:01.915Z,990.98
2017-02-05T13:03:16.036Z,990.96
2017-02-05T13:04:30.022Z,990.97
2017-02-05T13:05:43.476Z,990.99
2017-02-05T13:06:57.498Z,991.02
2017-02-05T13:08:11.036Z,990.99
2017-02-05T13:09:24.812Z,991
2017-02-05T13:10:38.331Z,990.95
2017-02-05T13:11:51.950Z,990.93
2017-02-05T13:13:05.493Z,990.9
2017-02-05T13:14:19.034Z,990.83
2017-02-05T13:15:33.015Z,990.84
2017-02-05T13:16:47.688Z,990.81
2017-02-05T13:18:01.130Z,990.82
2017-02-05T13:19:14.704Z,990.84
2017-02-05T13:20:28.568Z,990.87
2017-02-05T13:21:42.558Z,990.85
2017-02-05T13:22:56.248Z,990.83
2017-02-05T13:24:10.306Z,990.83
2017-02-05T13:25:24.064Z,990.77
2017-02-05T13:26:37.685Z,990.68
2017-02-05T13:27:51.118Z,990.74
2017-02-05T13:29:04.723Z,990.74
2017-02-05T13:30:18.184Z,990.73
2017-02-05T13:31:32.717Z,990.75
2017-02-05T13:32:46.221Z,990.77
2017-02-05T13:33:59.921Z,990.76
2017-02-05T13:35:14.833Z,990.81
2017-02-05T13:36:29.203Z,990.77
2017-02-05T13:37:42.649Z,990.76
2017-02-05T13:38:56.705Z,990.74
2017-02-05T13:40:11.020Z,990.75
2017-02-05T13:41:24.579Z,990.76
2017-02-05T13:42:38.471Z,990.73
2017-02-05T13:43:52.017Z,990.73
2017-02-05T13:45:05.555Z,990.68
2017-02-05T13:46:19.189Z,990.66
2017-02-05T13:47:33.122Z,990.66
2017-02-05T13:48:46.725Z,990.62
2017-02-05T13:50:00.227Z,990.62
2017-02-05T13:51:14.042Z,990.65
2017-02-05T13:52:27.673Z,990.64
2017-02-05T13:53:41.585Z,990.72
2017-02-05T13:54:55.570Z,990.7
2017-02-05T13:56:10.158Z,990.75
2017-02-05T13:57:24.013Z,990.74
2017-02-05T13:58:37.863Z,990.72
2017-02-05T13:59:51.397Z,990.72
2017-02-05T14:01:05.027Z,990.74
2017-02-05T14:02:18.928Z,990.72
2017-02-05T14:03:32.949Z,990.7
2017-02-05T14:04:47.787Z,990.64
2017-02-05T14:06:02.199Z,990.68
2017-02-05T14:07:15.645Z,990.67
2017-02-05T14:08:29.713Z,990.65
2017-02-05T14:09:43.130Z,990.62
2017-02-05T14:10:57.650Z,990.65
2017-02-05T14:12:11.651Z,990.61
2017-02-05T14:13:25.678Z,990.65
2017-02-05T14:14:39.751Z,990.66
2017-02-05T14:15:55.762Z,990.67
2017-02-05T14:17:09.458Z,990.68
2017-02-05T14:18:23.049Z,990.66
2017-02-05T14:19:36.595Z,990.7
2017-02-05T14:20:50.615Z,990.63
2017-02-05T14:22:04.588Z,990.68
2017-02-05T14:23:18.202Z,990.71
2017-02-05T14:24:31.698Z,990.69
2017-02-05T14:25:45.763Z,990.77
2017-02-05T14:26:59.353Z,990.77
2017-02-05T14:28:13.026Z,990.73
2017-02-05T14:29:27.330Z,990.8
2017-02-05T14:30:40.971Z,990.77
2017-02-05T14:31:55.000Z,990.8
2017-02-05T14:33:08.668Z,990.81
2017-02-05T14:34:22.158Z,990.78
2017-02-05T14:35:36.160Z,990.75
2017-02-05T14:36:49.686Z,990.75
2017-02-05T14:38:03.497Z,990.75
2017-02-05T14:39:17.095Z,990.74
2017-02-05T14:40:30.645Z,990.76
2017-02-05T14:41:44.219Z,990.8
2017-02-05T14:42:57.836Z,990.75
2017-02-05T14:44:11.284Z,990.74
2017-02-05T14:45:24.944Z,990.78
2017-02-05T14:46:38.627Z,990.79
2017-02-05T14:47:52.658Z,990.79
2017-02-05T14:49:06.283Z,990.79
2017-02-05T14:50:20.688Z,990.84
2017-02-05T14:51:34.782Z,990.82
2017-02-05T14:52:48.468Z,990.78
2017-02-05T14:54:01.943Z,990.76
2017-02-05T14:55:16.424Z,990.79
2017-02-05T14:56:29.861Z,990.77
2017-02-05T14:57:43.490Z,990.75
2017-02-05T14:58:57.389Z,990.76
2017-02-05T15:00:12.371Z,990.82
2017-02-05T15:01:25.831Z,990.84
2017-02-05T15:02:39.423Z,990.8
2017-02-05T15:03:52.854Z,990.82
2017-02-05T15:05:06.548Z,990.84
2017-02-05T15:06:19.969Z,990.9
2017-02-05T15:07:33.869Z,990.83
2017-02-05T15:08:47.763Z,990.85
2017-02-05T15:10:01.356Z,990.83
2017-02-05T15:11:15.222Z,990.84
2017-02-05T15:12:29.012Z,990.83
2017-02-05T15:13:42.852Z,990.87
2017-02-05T15:14:56.729Z,990.86
2017-02-05T15:16:10.692Z,990.81
2017-02-05T15:17:24.760Z,990.84
2017-02-05T15:18:38.695Z,990.83
2017-02-05T15:19:52.448Z,990.84
2017-02-05T15:21:05.961Z,990.82
2017-02-05T15:22:19.652Z,990.84
2017-02-05T15:23:33.758Z,990.79
2017-02-05T15:24:48.458Z,990.81
2017-02-05T15:26:02.516Z,990.79
2017-02-05T15:27:17.170Z,990.82
2017-02-05T15:28:31.564Z,990.84
2017-02-05T15:29:45.140Z,990.83
2017-02-05T15:30:58.710Z,990.77
2017-02-05T15:32:14.595Z,990.74
2017-02-05T15:33:29.403Z,990.72